Time;durP1;ratioP1;P1;durP2;ratioP2;P2;SDS_P1;SDS_P2;PMS_P1;PMS_P2;Temp;Humidity;BMP_temperature;BMP_pressure;BME280_temperature;BME280_humidity;BME280_pressure;Samples;Min_cycle;Max_cycle;Signal;HPM_P1;HPM_P2
2024/01/27 00:01:26;;;;;;;34.97;3.63;;;;;;;5.54;99.82;103066.97;10140794;29;20056;-70
2024/01/27 00:06:48;;;;;;;40.95;3.90;;;;;;;5.55;99.75;103058.47;10139009;29;20056;-68
2024/01/27 00:12:10;;;;;;;31.88;3.55;;;;;;;5.43;100.00;103066.69;10116767;29;20048;-71
2024/01/27 00:17:31;;;;;;;27.55;4.30;;;;;;;5.44;99.96;103070.13;10140444;29;20481;-70
2024/01/27 00:22:53;;;;;;;29.08;4.10;;;;;;;5.40;100.00;103078.56;10124491;29;20060;-70
2024/01/27 00:28:15;;;;;;;26.38;3.53;;;;;;;5.37;100.00;103073.34;10145049;29;20071;-70
2024/01/27 00:33:36;;;;;;;23.58;3.95;;;;;;;5.31;100.00;103068.06;10146176;29;23702;-70
2024/01/27 00:38:58;;;;;;;27.48;3.78;;;;;;;5.25;100.00;103073.00;10131544;29;20461;-70
2024/01/27 00:44:20;;;;;;;32.22;3.53;;;;;;;5.29;100.00;103079.97;10129315;29;20055;-70
2024/01/27 00:49:42;;;;;;;29.48;3.40;;;;;;;5.26;100.00;103087.56;10140927;29;20060;-70
2024/01/27 00:55:05;;;;;;;30.10;3.90;;;;;;;5.18;100.00;103068.53;10144462;29;20053;-70
2024/01/27 01:00:27;;;;;;;34.20;4.43;;;;;;;5.25;100.00;103088.41;10123813;29;20060;-70
2024/01/27 01:05:48;;;;;;;31.95;3.88;;;;;;;5.29;100.00;103090.25;10133119;29;20377;-70
2024/01/27 01:11:11;;;;;;;31.13;4.10;;;;;;;5.23;100.00;103093.50;10123794;29;20060;-70
2024/01/27 01:16:32;;;;;;;28.50;3.55;;;;;;;5.25;100.00;103088.41;10137594;29;20052;-70
2024/01/27 01:21:57;;;;;;;25.15;3.35;;;;;;;5.26;100.00;103091.00;10134041;29;20075;-70
2024/01/27 01:27:20;;;;;;;24.92;3.38;;;;;;;5.21;100.00;103086.56;10136998;29;20069;-70
2024/01/27 01:32:42;;;;;;;30.00;3.65;;;;;;;5.22;100.00;103098.59;10157030;29;20055;-70
2024/01/27 01:38:04;;;;;;;27.25;3.88;;;;;;;5.25;100.00;103106.38;10141280;29;20056;-69
2024/01/27 01:43:26;;;;;;;30.23;3.50;;;;;;;5.25;100.00;103121.78;10134982;29;20479;-70
2024/01/27 01:48:47;;;;;;;27.35;3.90;;;;;;;5.22;100.00;103134.53;10140053;29;20056;-70
2024/01/27 01:54:11;;;;;;;28.17;3.55;;;;;;;5.21;100.00;103122.50;10150418;29;20453;-69
2024/01/27 01:59:34;;;;;;;32.92;4.65;;;;;;;5.22;100.00;103134.53;10168067;29;20064;-68
2024/01/27 02:04:55;;;;;;;27.08;3.30;;;;;;;5.21;100.00;103137.91;10128502;29;20207;-68
2024/01/27 02:10:18;;;;;;;24.70;3.90;;;;;;;5.24;100.00;103135.44;10133329;29;20055;-68
2024/01/27 02:15:39;;;;;;;27.65;3.92;;;;;;;5.11;100.00;103137.63;10145481;29;20048;-68
2024/01/27 02:21:04;;;;;;;33.50;3.83;;;;;;;5.04;100.00;103135.72;10152749;29;20075;-68
2024/01/27 02:26:26;;;;;;;23.67;3.67;;;;;;;5.09;100.00;103139.28;10165256;29;20040;-68
2024/01/27 02:31:48;;;;;;;34.50;4.57;;;;;;;5.06;100.00;103149.47;10150324;29;20065;-68
2024/01/27 02:37:10;;;;;;;30.08;3.90;;;;;;;4.99;100.00;103142.41;10143981;29;20057;-68
2024/01/27 02:42:32;;;;;;;28.13;3.40;;;;;;;5.02;100.00;103151.88;10160939;29;20056;-68
2024/01/27 02:47:53;;;;;;;31.33;3.42;;;;;;;5.01;100.00;103145.03;10157116;29;20044;-69
2024/01/27 02:53:15;;;;;;;28.42;3.28;;;;;;;5.01;100.00;103145.03;10141286;29;20068;-69
2024/01/27 02:58:37;;;;;;;23.67;3.63;;;;;;;5.01;100.00;103151.03;10153571;29;20052;-69
2024/01/27 03:03:58;;;;;;;27.92;4.00;;;;;;;4.93;100.00;103144.78;10145644;29;20056;-69
2024/01/27 03:09:20;;;;;;;27.40;3.60;;;;;;;4.98;100.00;103135.53;10131763;29;20733;-69
2024/01/27 03:14:42;;;;;;;29.80;3.55;;;;;;;4.88;100.00;103148.91;10167122;29;20052;-69
2024/01/27 03:20:05;;;;;;;26.00;3.50;;;;;;;4.81;100.00;103141.84;10143560;29;20060;-69
2024/01/27 03:25:26;;;;;;;23.73;3.80;;;;;;;4.80;100.00;103145.22;10132815;29;20413;-69
2024/01/27 03:30:48;;;;;;;34.90;4.55;;;;;;;4.79;100.00;103158.88;10148887;29;20068;-69
2024/01/27 03:36:11;;;;;;;27.25;3.33;;;;;;;4.75;100.00;103157.03;10146169;29;20055;-69
2024/01/27 03:41:33;;;;;;;32.55;3.72;;;;;;;4.77;100.00;103149.41;10141345;29;20354;-69
2024/01/27 03:46:55;;;;;;;27.92;3.58;;;;;;;4.77;100.00;103160.53;10137334;29;20180;-69
2024/01/27 03:52:17;;;;;;;25.83;2.90;;;;;;;4.69;100.00;103161.09;10140521;29;20837;-69
2024/01/27 03:57:38;;;;;;;25.38;3.30;;;;;;;4.62;100.00;103147.22;10162743;29;20044;-69
2024/01/27 04:03:00;;;;;;;25.42;3.28;;;;;;;4.71;100.00;103162.91;10144953;29;20058;-69
2024/01/27 04:08:22;;;;;;;20.33;3.17;;;;;;;4.76;100.00;103169.03;10146713;29;20568;-69
2024/01/27 04:13:44;;;;;;;26.80;3.38;;;;;;;4.68;100.00;103167.94;10149771;29;20043;-69
2024/01/27 04:19:06;;;;;;;25.83;3.58;;;;;;;4.70;100.00;103162.84;10119044;29;20048;-69
2024/01/27 04:24:28;;;;;;;20.80;3.53;;;;;;;4.69;100.00;103169.66;10141934;29;20061;-69
2024/01/27 04:29:50;;;;;;;28.75;3.38;;;;;;;4.63;100.00;103166.06;10130164;29;20092;-70
2024/01/27 04:35:12;;;;;;;19.55;3.08;;;;;;;4.64;100.00;103173.78;10136188;29;20123;-69
2024/01/27 04:40:35;;;;;;;22.70;3.10;;;;;;;4.63;100.00;103184.84;10152545;29;20058;-69
2024/01/27 04:45:57;;;;;;;28.52;3.67;;;;;;;4.63;100.00;103182.28;10115933;29;20139;-69
2024/01/27 04:51:18;;;;;;;22.27;3.10;;;;;;;4.64;100.00;103178.03;10137522;29;20103;-69
2024/01/27 04:56:40;;;;;;;21.67;3.22;;;;;;;4.63;100.00;103182.28;10130461;29;20134;-69
2024/01/27 05:02:02;;;;;;;30.63;2.78;;;;;;;4.62;100.00;103185.69;10148102;29;20119;-69
2024/01/27 05:07:24;;;;;;;21.58;3.33;;;;;;;4.52;100.00;103183.66;10138876;29;20059;-69
2024/01/27 05:12:46;;;;;;;28.77;3.80;;;;;;;4.54;100.00;103197.38;10126982;29;20056;-69
2024/01/27 05:18:07;;;;;;;23.33;3.38;;;;;;;4.53;100.00;103205.00;10152278;29;20048;-68
2024/01/27 05:23:29;;;;;;;26.25;3.20;;;;;;;4.46;100.00;103213.31;10131188;29;20055;-68
2024/01/27 05:28:52;;;;;;;25.00;3.42;;;;;;;4.43;100.00;103213.22;10141638;29;20056;-69
2024/01/27 05:34:14;;;;;;;28.63;3.30;;;;;;;4.37;100.00;103206.22;10134185;29;20056;-68
2024/01/27 05:39:36;;;;;;;25.63;3.17;;;;;;;4.32;100.00;103204.31;10131471;29;20052;-69
2024/01/27 05:44:58;;;;;;;18.85;3.22;;;;;;;4.35;100.00;103200.16;10137106;29;20043;-68
2024/01/27 05:50:20;;;;;;;27.33;3.58;;;;;;;4.33;100.00;103211.16;10135667;29;20536;-68
2024/01/27 05:55:41;;;;;;;25.95;3.80;;;;;;;4.25;100.00;103208.34;10146330;29;20056;-69
2024/01/27 06:01:03;;;;;;;20.52;3.05;;;;;;;4.27;100.00;103226.34;10125969;29;20489;-68
2024/01/27 06:06:25;;;;;;;20.67;3.17;;;;;;;4.22;100.00;103223.63;10133518;29;20126;-69
2024/01/27 06:11:47;;;;;;;23.83;3.95;;;;;;;4.25;100.00;103238.25;10135836;29;20079;-68
2024/01/27 06:17:09;;;;;;;18.58;3.17;;;;;;;4.20;100.00;103232.94;10123364;29;20048;-68
2024/01/27 06:22:32;;;;;;;31.42;3.33;;;;;;;4.20;100.00;103244.88;10133498;29;20232;-69
2024/01/27 06:27:54;;;;;;;16.85;3.33;;;;;;;4.22;100.00;103240.66;10127831;29;20381;-69
2024/01/27 06:33:16;;;;;;;23.55;3.92;;;;;;;4.21;100.00;103268.00;10128645;29;20462;-68
2024/01/27 06:38:38;;;;;;;13.07;3.28;;;;;;;4.21;100.00;103255.19;10146093;29;20093;-69
2024/01/27 06:43:59;;;;;;;17.40;3.45;;;;;;;4.22;100.00;103251.81;10145295;29;20051;-69
2024/01/27 06:49:21;;;;;;;19.23;3.30;;;;;;;4.23;100.00;103266.34;10154364;29;20060;-69
2024/01/27 06:54:43;;;;;;;18.05;3.38;;;;;;;4.18;100.00;103267.00;10127990;29;20531;-69
2024/01/27 07:00:06;;;;;;;33.67;3.78;;;;;;;4.09;100.00;103252.19;10147321;29;20568;-71
2024/01/27 07:05:28;;;;;;;16.30;3.30;;;;;;;4.17;100.00;103261.03;10143054;29;20056;-69
2024/01/27 07:10:49;;;;;;;23.33;3.30;;;;;;;4.17;100.00;103271.28;10135759;29;20044;-69
2024/01/27 07:16:11;;;;;;;16.10;3.40;;;;;;;4.13;100.00;103287.34;10120674;29;20059;-69
2024/01/27 07:21:33;;;;;;;24.92;3.90;;;;;;;4.13;100.00;103289.03;10130831;29;20056;-69
2024/01/27 07:26:55;;;;;;;17.33;3.28;;;;;;;4.10;100.00;103282.13;10131718;29;20044;-69
2024/01/27 07:32:17;;;;;;;23.42;3.40;;;;;;;4.13;100.00;103274.53;10124175;29;20926;-69
2024/01/27 07:37:39;;;;;;;18.90;3.55;;;;;;;4.13;100.00;103264.28;10113646;29;20923;-69
2024/01/27 07:43:00;;;;;;;28.50;4.05;;;;;;;4.14;100.00;103286.50;10110535;29;20062;-69
2024/01/27 07:48:22;;;;;;;24.50;3.67;;;;;;;4.14;100.00;103294.19;10139193;29;20564;-69
2024/01/27 07:53:44;;;;;;;28.40;3.60;;;;;;;4.13;100.00;103294.16;10131698;29;20113;-68
2024/01/27 07:59:13;;;;;;;24.08;4.00;;;;;;;4.18;100.00;103319.13;10135105;29;20053;-69
2024/01/27 08:04:35;;;;;;;24.65;3.83;;;;;;;4.18;100.00;103316.56;10129921;29;20059;-69
2024/01/27 08:09:57;;;;;;;23.48;3.42;;;;;;;4.20;100.00;103332.84;10126693;29;20049;-69
2024/01/27 08:15:18;;;;;;;21.95;3.45;;;;;;;4.22;100.00;103332.91;10131020;29;21367;-71
2024/01/27 08:20:40;;;;;;;23.33;3.65;;;;;;;4.31;100.00;103339.25;10144808;29;20143;-69
2024/01/27 08:26:02;;;;;;;21.67;3.53;;;;;;;4.32;100.00;103332.44;10137988;29;20099;-70
2024/01/27 08:31:24;;;;;;;19.70;3.60;;;;;;;4.36;100.00;103339.41;10142435;29;20078;-70
2024/01/27 08:36:46;;;;;;;22.73;4.18;;;;;;;4.38;100.00;103359.13;10128656;29;20063;-70
2024/01/27 08:42:07;;;;;;;26.92;4.53;;;;;;;4.41;100.00;103369.53;10119717;29;20441;-69
2024/01/27 08:47:29;;;;;;;23.38;4.30;;;;;;;4.45;100.00;103350.84;10131345;29;20112;-69
2024/01/27 08:52:51;;;;;;;27.63;3.95;;;;;;;4.54;100.00;103366.56;10131444;29;20044;-69
2024/01/27 08:58:12;;;;;;;19.65;3.92;;;;;;;4.57;100.00;103356.44;10113519;29;20103;-69
2024/01/27 09:03:34;;;;;;;22.83;4.25;;;;;;;4.66;100.00;103378.94;10141367;29;20056;-69
2024/01/27 09:08:56;;;;;;;23.85;4.43;;;;;;;4.74;100.00;103370.69;10113325;29;20057;-69
2024/01/27 09:14:18;;;;;;;20.13;4.05;;;;;;;4.76;100.00;103368.19;10121042;29;20135;-69
2024/01/27 09:19:39;;;;;;;24.00;4.25;;;;;;;4.86;100.00;103371.13;10146358;29;20060;-69
2024/01/27 09:25:01;;;;;;;23.92;3.83;;;;;;;4.94;100.00;103385.06;10110651;29;20048;-69
2024/01/27 09:30:23;;;;;;;20.95;4.07;;;;;;;5.04;100.00;103392.28;10139261;29;20152;-69
2024/01/27 09:35:46;;;;;;;22.02;4.15;;;;;;;5.10;100.00;103392.47;10146081;29;20053;-70
2024/01/27 09:41:09;;;;;;;18.63;4.38;;;;;;;5.16;100.00;103390.94;10137838;29;20059;-70
2024/01/27 09:46:32;;;;;;;27.17;5.30;;;;;;;5.24;100.00;103387.78;10140897;29;20052;-70
2024/01/27 09:51:56;;;;;;;24.80;4.97;;;;;;;5.30;100.00;103384.56;10142088;29;20060;-70
2024/01/27 09:57:20;;;;;;;19.88;5.10;;;;;;;5.37;100.00;103378.78;10139780;29;20053;-69
2024/01/27 10:02:43;;;;;;;23.88;5.20;;;;;;;5.44;100.00;103391.88;10106710;29;20060;-70
2024/01/27 10:08:08;;;;;;;21.25;5.30;;;;;;;5.48;100.00;103380.00;10148072;29;20059;-70
2024/01/27 10:13:30;;;;;;;19.58;5.70;;;;;;;5.62;100.00;103386.47;10147488;29;20048;-70
2024/01/27 10:19:02;;;;;;;29.30;7.13;;;;;;;5.70;100.00;103392.69;10161074;29;20048;-70
2024/01/27 10:24:25;;;;;;;23.10;6.20;;;;;;;5.83;100.00;103415.41;10142545;29;20074;-70
2024/01/27 10:29:54;;;;;;;25.98;6.43;;;;;;;5.91;100.00;103416.53;10154246;29;20040;-69
2024/01/27 10:35:16;;;;;;;27.35;6.05;;;;;;;6.02;99.13;103422.88;10147702;29;20143;-70
2024/01/27 10:40:38;;;;;;;31.48;6.88;;;;;;;6.11;100.00;103418.00;10151841;29;20280;-70
2024/01/27 10:46:01;;;;;;;29.08;6.18;;;;;;;6.21;99.23;103404.59;10143514;29;20056;-70
2024/01/27 10:51:31;;;;;;;27.45;6.35;;;;;;;6.26;99.04;103397.03;10147603;29;20056;-70
2024/01/27 10:56:56;;;;;;;19.75;6.88;;;;;;;6.39;98.39;103419.69;10139234;29;20543;-68
2024/01/27 11:02:18;;;;;;;20.70;6.38;;;;;;;6.52;98.04;103411.50;10164445;29;20060;-68
2024/01/27 11:07:41;;;;;;;22.10;5.75;;;;;;;6.63;97.57;103390.38;10154889;29;20070;-69
2024/01/27 11:13:04;;;;;;;30.88;6.40;;;;;;;6.71;96.96;103388.03;10141749;29;20741;-65
2024/01/27 11:18:27;;;;;;;19.15;5.10;;;;;;;6.84;96.65;103427.00;10157272;29;20044;-69
2024/01/27 11:23:48;;;;;;;18.58;4.75;;;;;;;6.95;97.03;103423.00;10153033;29;20056;-69
2024/01/27 11:29:19;;;;;;;20.98;5.65;;;;;;;7.05;97.18;103417.25;10136091;29;20144;-69
2024/01/27 11:34:43;;;;;;;24.48;5.38;;;;;;;7.19;95.52;103424.47;10151067;29;20055;-69
2024/01/27 11:40:09;;;;;;;21.42;4.65;;;;;;;7.31;95.35;103435.09;10139986;29;20436;-68
2024/01/27 11:45:32;;;;;;;18.17;4.32;;;;;;;7.42;94.59;103423.34;10153177;29;20753;-69
2024/01/27 11:51:10;;;;;;;21.25;4.30;;;;;;;7.50;93.63;103437.28;10146105;29;20052;-68
2024/01/27 11:56:32;;;;;;;19.00;4.55;;;;;;;7.54;93.44;103433.97;10148183;29;20055;-69
2024/01/27 12:01:54;;;;;;;18.70;4.50;;;;;;;7.58;94.16;103435.78;10153396;29;20056;-68
2024/01/27 12:07:18;;;;;;;19.23;4.10;;;;;;;7.72;93.35;103444.69;10140039;29;20063;-68
2024/01/27 12:12:41;;;;;;;16.15;4.03;;;;;;;7.74;93.48;103436.19;10157268;29;20060;-68
2024/01/27 12:18:04;;;;;;;20.70;4.32;;;;;;;7.79;93.67;103425.97;10146205;29;20080;-68
2024/01/27 12:23:26;;;;;;;23.05;5.38;;;;;;;7.93;92.40;103434.88;10160689;29;20183;-68
2024/01/27 12:28:48;;;;;;;25.88;4.78;;;;;;;7.92;91.67;103434.03;10143679;29;20040;-69
2024/01/27 12:34:10;;;;;;;27.30;5.28;;;;;;;7.98;91.73;103422.97;10139643;29;20060;-71
2024/01/27 12:39:32;;;;;;;27.73;4.75;;;;;;;8.01;92.12;103433.34;10145971;29;20055;-72
2024/01/27 12:44:54;;;;;;;23.58;4.35;;;;;;;8.02;92.07;103422.22;10143719;29;20043;-71
2024/01/27 12:50:16;;;;;;;19.88;4.60;;;;;;;8.06;91.95;103422.31;10141033;29;20043;-70
2024/01/27 12:55:38;;;;;;;21.42;4.68;;;;;;;8.12;91.19;103426.72;10143158;29;20412;-70
2024/01/27 13:01:00;;;;;;;22.48;4.70;;;;;;;8.08;91.49;103419.75;10140730;29;20056;-70
2024/01/27 13:06:22;;;;;;;17.38;4.40;;;;;;;8.12;90.75;103426.72;10143652;29;20453;-70
2024/01/27 13:11:45;;;;;;;21.02;4.88;;;;;;;8.17;91.22;103427.69;10144472;29;20054;-70
2024/01/27 13:17:07;;;;;;;22.65;5.05;;;;;;;8.19;90.65;103420.84;10146356;29;26838;-70
2024/01/27 13:22:29;;;;;;;21.58;4.43;;;;;;;8.23;91.23;103417.50;10143130;29;20056;-70
2024/01/27 13:27:50;;;;;;;20.80;5.05;;;;;;;8.24;91.33;103415.81;10147106;29;20063;-70
2024/01/27 13:33:12;;;;;;;23.33;3.92;;;;;;;8.31;90.19;103422.88;10142495;29;20119;-69
2024/01/27 13:38:35;;;;;;;18.27;4.10;;;;;;;8.36;89.75;103429.00;10151170;29;20075;-69
2024/01/27 13:43:57;;;;;;;23.95;4.50;;;;;;;8.35;89.87;103415.22;10134037;29;20052;-69
2024/01/27 13:49:20;;;;;;;16.02;4.10;;;;;;;8.40;90.43;103416.19;10135823;29;20131;-69
2024/01/27 13:54:42;;;;;;;21.63;4.65;;;;;;;8.42;89.69;103417.09;10169051;29;20113;-68
2024/01/27 14:00:04;;;;;;;23.63;4.00;;;;;;;8.44;89.43;103415.41;10144780;29;20455;-69
2024/01/27 14:05:26;;;;;;;19.40;4.22;;;;;;;8.46;89.86;103407.72;10155710;29;20052;-68
2024/01/27 14:10:50;;;;;;;18.05;4.35;;;;;;;8.46;89.79;103415.47;10159681;29;20048;-68
2024/01/27 14:16:12;;;;;;;22.13;4.43;;;;;;;8.43;89.04;103403.34;10155415;29;20726;-68
2024/01/27 14:21:33;;;;;;;18.30;4.05;;;;;;;8.45;88.78;103398.22;10156334;29;20083;-69
2024/01/27 14:26:55;;;;;;;17.92;4.15;;;;;;;8.49;88.26;103398.31;10155628;29;20044;-68
2024/01/27 14:32:17;;;;;;;13.85;3.72;;;;;;;8.46;88.57;103407.72;10157842;29;20074;-68
2024/01/27 14:37:39;;;;;;;21.15;3.97;;;;;;;8.40;88.99;103405.00;10154193;29;20104;-69
2024/01/27 14:43:08;;;;;;;15.00;3.50;;;;;;;8.37;88.90;103418.69;10145553;29;20399;-69
2024/01/27 14:48:31;;;;;;;19.23;4.28;;;;;;;8.36;89.65;103408.34;10156198;29;20058;-69
2024/01/27 14:53:53;;;;;;;21.48;3.72;;;;;;;8.36;89.11;103419.56;10136852;29;20048;-68
2024/01/27 14:59:15;;;;;;;15.85;3.45;;;;;;;8.32;88.77;103409.13;10139450;29;20048;-68
2024/01/27 15:04:37;;;;;;;17.15;4.10;;;;;;;8.27;88.99;103403.88;10152995;29;20060;-69
2024/01/27 15:09:59;;;;;;;18.27;4.20;;;;;;;8.29;88.76;103407.38;10129303;29;20044;-69
2024/01/27 15:15:21;;;;;;;23.30;4.38;;;;;;;8.23;88.32;103398.59;10146114;29;20058;-69
2024/01/27 15:20:42;;;;;;;19.27;4.38;;;;;;;8.18;88.33;103393.34;10149390;29;20083;-69
2024/01/27 15:26:06;;;;;;;24.98;3.80;;;;;;;8.12;88.54;103413.84;10137057;29;20053;-69
2024/01/27 15:31:28;;;;;;;17.95;3.58;;;;;;;8.06;89.58;103411.13;10142103;29;20524;-69
2024/01/27 15:36:50;;;;;;;22.08;4.10;;;;;;;8.02;89.55;103424.81;10141970;29;20040;-69
2024/01/27 15:42:13;;;;;;;21.42;3.60;;;;;;;7.97;89.62;103416.06;10146415;29;20056;-69
2024/01/27 15:47:35;;;;;;;16.58;3.70;;;;;;;7.92;90.10;103434.03;10133111;29;20112;-68
2024/01/27 15:52:57;;;;;;;22.20;4.03;;;;;;;7.85;90.24;103436.44;10143147;29;20052;-70
2024/01/27 15:58:20;;;;;;;17.67;3.45;;;;;;;7.79;90.85;103428.53;10137006;29;20063;-69
2024/01/27 16:03:42;;;;;;;19.30;4.13;;;;;;;7.69;91.19;103434.34;10135187;29;20060;-69
2024/01/27 16:09:03;;;;;;;27.25;4.60;;;;;;;7.57;92.37;103436.59;10116381;29;20060;-69
2024/01/27 16:14:25;;;;;;;20.08;4.82;;;;;;;7.49;92.66;103435.56;10123488;29;20071;-69
2024/01/27 16:19:47;;;;;;;16.98;4.63;;;;;;;7.42;92.82;103424.22;10136846;29;20040;-69
2024/01/27 16:25:09;;;;;;;23.80;4.60;;;;;;;7.34;92.91;103427.44;10148920;29;20682;-69
2024/01/27 16:30:30;;;;;;;20.33;4.40;;;;;;;7.29;92.38;103435.03;10145443;29;20060;-69
2024/01/27 16:35:52;;;;;;;21.48;4.18;;;;;;;7.25;92.59;103433.25;10126485;29;20139;-68
2024/01/27 16:41:15;;;;;;;14.38;4.20;;;;;;;7.21;92.87;103443.41;10136641;29;20057;-69
2024/01/27 16:46:36;;;;;;;17.05;4.28;;;;;;;7.13;93.11;103435.47;10135088;29;20062;-69
2024/01/27 16:51:58;;;;;;;14.63;4.07;;;;;;;7.14;93.63;103457.84;10125954;29;20059;-69
2024/01/27 16:57:20;;;;;;;16.05;4.13;;;;;;;7.05;93.80;103463.59;10147265;29;20061;-69
2024/01/27 17:02:42;;;;;;;17.63;4.35;;;;;;;6.99;93.21;103468.59;10129849;29;20146;-68
2024/01/27 17:08:04;;;;;;;17.20;4.50;;;;;;;6.94;93.12;103465.00;10132449;29;20048;-70
2024/01/27 17:13:27;;;;;;;15.20;4.63;;;;;;;6.82;93.77;103459.53;10141300;29;20088;-70
2024/01/27 17:18:49;;;;;;;20.40;4.88;;;;;;;6.79;95.19;103464.56;10141856;29;20112;-70
2024/01/27 17:24:11;;;;;;;16.88;4.57;;;;;;;6.74;94.66;103461.00;10142515;29;20063;-70
2024/01/27 17:29:33;;;;;;;23.08;5.68;;;;;;;6.72;93.77;103467.81;10160207;29;20052;-70
2024/01/27 17:34:55;;;;;;;18.88;4.95;;;;;;;6.71;94.58;103483.22;10153620;29;20052;-69
2024/01/27 17:40:17;;;;;;;23.83;5.90;;;;;;;6.66;94.21;103488.25;10129707;29;20060;-70
2024/01/27 17:45:40;;;;;;;16.80;5.90;;;;;;;6.64;93.77;103484.75;10135346;29;20060;-70
2024/01/27 17:51:08;;;;;;;28.05;6.68;;;;;;;6.52;93.98;103480.94;10156798;29;20082;-70
2024/01/27 17:56:29;;;;;;;26.55;6.18;;;;;;;6.51;94.29;103487.78;10143463;29;20652;-68
2024/01/27 18:01:51;;;;;;;25.00;6.50;;;;;;;6.44;94.33;103485.88;10148582;29;20048;-70
2024/01/27 18:07:13;;;;;;;18.40;5.47;;;;;;;6.39;93.57;103489.13;10142798;29;20056;-70
2024/01/27 18:12:35;;;;;;;19.02;5.55;;;;;;;6.36;93.33;103491.59;10136206;29;20062;-70
2024/01/27 18:18:00;;;;;;;23.95;6.07;;;;;;;6.27;92.60;103494.75;10145039;29;20040;-69
2024/01/27 18:23:22;;;;;;;20.42;6.00;;;;;;;6.27;93.00;103492.19;10141460;29;20158;-70
2024/01/27 18:28:43;;;;;;;18.27;5.78;;;;;;;6.23;93.32;103500.63;10152012;29;20289;-69
2024/01/27 18:34:05;;;;;;;19.33;5.35;;;;;;;6.18;93.11;103504.75;10141599;29;20138;-69
2024/01/27 18:39:27;;;;;;;20.67;5.93;;;;;;;6.16;93.57;103498.69;10140344;29;20052;-69
2024/01/27 18:44:48;;;;;;;19.63;6.00;;;;;;;6.13;93.44;103501.19;10167559;29;20492;-69
2024/01/27 18:50:11;;;;;;;19.73;5.63;;;;;;;6.09;92.74;103496.75;10153080;29;20057;-69
2024/01/27 18:55:37;;;;;;;20.50;5.70;;;;;;;6.08;93.30;103489.84;10142086;29;20228;-70
2024/01/27 19:01:00;;;;;;;16.15;5.75;;;;;;;6.02;94.19;103493.09;10137011;29;20064;-70
2024/01/27 19:06:22;;;;;;;22.42;6.50;;;;;;;6.00;94.18;103499.94;10154478;29;21031;-69
2024/01/27 19:11:43;;;;;;;21.08;5.95;;;;;;;5.89;94.15;103495.25;10152966;29;20610;-68
2024/01/27 19:17:06;;;;;;;21.38;6.15;;;;;;;5.86;94.60;103501.16;10132953;29;20048;-68
2024/01/27 19:22:28;;;;;;;22.00;5.90;;;;;;;5.86;93.78;103497.75;10142051;29;20215;-68
2024/01/27 19:27:49;;;;;;;20.70;6.20;;;;;;;5.79;94.50;103501.75;10151898;29;20072;-68
2024/01/27 19:33:11;;;;;;;25.10;7.05;;;;;;;5.70;93.46;103511.72;10132359;29;20635;-68
2024/01/27 19:38:33;;;;;;;21.13;6.45;;;;;;;5.62;93.26;103502.88;10130500;29;20844;-68
2024/01/27 19:44:00;;;;;;;19.15;6.60;;;;;;;5.53;92.77;103500.00;10138855;29;20416;-68
2024/01/27 19:49:21;;;;;;;23.63;7.60;;;;;;;5.50;94.33;103501.59;10159550;29;20055;-68
2024/01/27 19:54:43;;;;;;;23.95;7.00;;;;;;;5.47;94.34;103491.25;10141598;29;20056;-68
2024/01/27 20:00:29;;;;;;;20.52;7.28;;;;;;;5.44;94.63;103497.13;10144787;29;20083;-68
2024/01/27 20:05:52;;;;;;;22.75;7.53;;;;;;;5.42;94.57;103498.78;10145335;29;20055;-68
2024/01/27 20:11:13;;;;;;;25.02;7.50;;;;;;;5.38;93.31;103501.22;10128239;29;20071;-69
2024/01/27 20:16:35;;;;;;;25.20;8.18;;;;;;;5.39;94.42;103502.94;10136817;29;20054;-68
2024/01/27 20:21:57;;;;;;;26.25;7.72;;;;;;;5.35;95.28;103506.25;10115719;29;20215;-69
2024/01/27 20:27:18;;;;;;;19.95;7.65;;;;;;;5.30;94.67;103507.75;10146541;29;20047;-68
2024/01/27 20:32:40;;;;;;;24.27;8.57;;;;;;;5.22;94.49;103504.06;10135555;29;20566;-68
2024/01/27 20:38:02;;;;;;;33.70;8.98;;;;;;;5.22;95.75;103493.81;10123855;29;20500;-68
2024/01/27 20:43:24;;;;;;;25.48;8.38;;;;;;;5.18;95.05;103503.09;10140098;29;20135;-68
2024/01/27 20:48:45;;;;;;;27.27;8.55;;;;;;;5.17;95.52;103511.59;10143863;29;20048;-68
2024/01/27 20:54:07;;;;;;;23.33;8.35;;;;;;;5.07;94.69;103523.22;10125816;29;20056;-68
2024/01/27 20:59:29;;;;;;;25.85;8.52;;;;;;;5.10;95.56;103515.66;10117402;29;20050;-68
2024/01/27 21:04:51;;;;;;;23.20;8.82;;;;;;;5.10;95.52;103518.22;10155817;29;20076;-68
2024/01/27 21:10:13;;;;;;;20.05;8.45;;;;;;;5.05;95.62;103508.59;10115400;29;20088;-68
2024/01/27 21:15:35;;;;;;;25.27;9.10;;;;;;;5.01;96.55;103502.50;10135058;29;20067;-68
2024/01/27 21:20:58;;;;;;;24.05;8.93;;;;;;;4.96;96.68;103503.16;10146149;29;20066;-68
2024/01/27 21:26:20;;;;;;;22.13;8.32;;;;;;;4.93;96.11;103495.31;10155179;29;20055;-68
2024/01/27 21:31:42;;;;;;;26.98;10.23;;;;;;;4.88;97.08;103486.59;10129633;29;20063;-68
2024/01/27 21:37:04;;;;;;;28.42;8.82;;;;;;;4.89;96.10;103489.22;10141119;29;20047;-68
2024/01/27 21:42:26;;;;;;;26.92;9.70;;;;;;;4.77;96.89;103500.72;10137544;29;20051;-68
2024/01/27 21:47:49;;;;;;;25.48;9.73;;;;;;;4.69;97.83;103494.44;10156568;29;20075;-68
2024/01/27 21:53:11;;;;;;;19.85;9.15;;;;;;;4.61;97.76;103490.72;10134604;29;20433;-68
2024/01/27 21:58:33;;;;;;;22.15;9.05;;;;;;;4.56;97.31;103493.09;10158353;29;20049;-68
2024/01/27 22:03:55;;;;;;;19.30;8.23;;;;;;;4.52;97.90;103486.13;10133678;29;20056;-67
2024/01/27 22:09:17;;;;;;;25.52;8.07;;;;;;;4.44;97.86;103472.16;10136934;29;20674;-68
2024/01/27 22:14:39;;;;;;;27.55;9.25;;;;;;;4.41;97.88;103472.03;10151641;29;20044;-69
2024/01/27 22:20:00;;;;;;;27.35;9.32;;;;;;;4.37;98.87;103488.13;10144134;29;20044;-69
2024/01/27 22:25:23;;;;;;;28.83;10.10;;;;;;;4.33;98.81;103487.91;10134989;29;20417;-68
2024/01/27 22:30:45;;;;;;;28.27;10.02;;;;;;;4.33;98.32;103491.38;10132672;29;20143;-69
2024/01/27 22:36:10;;;;;;;31.15;10.25;;;;;;;4.23;98.12;103481.56;10135336;29;20044;-68
2024/01/27 22:41:32;;;;;;;27.43;9.20;;;;;;;4.22;98.63;103486.63;10159421;29;20973;-68
2024/01/27 22:46:53;;;;;;;26.50;9.50;;;;;;;4.19;99.46;103484.84;10150888;29;20244;-67
2024/01/27 22:52:15;;;;;;;21.92;9.40;;;;;;;4.15;99.39;103466.72;10144985;29;20061;-68
2024/01/27 22:57:37;;;;;;;29.27;9.77;;;;;;;4.18;99.18;103482.19;10149181;29;20055;-69
2024/01/27 23:03:10;;;;;;;23.73;8.98;;;;;;;4.09;99.42;103483.63;10138024;29;20111;-69
2024/01/27 23:08:32;;;;;;;27.08;9.95;;;;;;;4.02;99.18;103488.44;10167215;29;20495;-70
2024/01/27 23:13:55;;;;;;;23.40;9.73;;;;;;;3.99;99.25;103488.31;10153077;29;20898;-69
2024/01/27 23:19:17;;;;;;;27.80;10.02;;;;;;;3.91;99.63;103490.56;10139326;29;20068;-69
2024/01/27 23:24:39;;;;;;;25.92;10.60;;;;;;;3.87;99.39;103490.38;10141340;29;20052;-70
2024/01/27 23:30:01;;;;;;;28.80;10.27;;;;;;;3.90;100.00;103491.38;10138130;29;20056;-69
2024/01/27 23:35:23;;;;;;;27.85;9.82;;;;;;;3.94;99.74;103489.81;10153479;29;20766;-69
2024/01/27 23:40:46;;;;;;;24.83;9.35;;;;;;;3.91;100.00;103476.88;10126770;29;20441;-69
2024/01/27 23:46:08;;;;;;;25.40;9.93;;;;;;;3.88;100.00;103479.34;10133427;29;20059;-70
2024/01/27 23:51:34;;;;;;;25.08;10.20;;;;;;;3.91;100.00;103471.75;10138243;29;20048;-70
2024/01/27 23:56:56;;;;;;;;;;;;;;;3.86;100.00;103463.03;10136126;29;20080;-70
